Time;durP1;ratioP1;P1;durP2;ratioP2;P2;SDS_P1;SDS_P2;PMS_P1;PMS_P2;Temp;Humidity;BMP_temperature;BMP_pressure;BME280_temperature;BME280_humidity;BME280_pressure;Samples;Min_cycle;Max_cycle;Signal;HPM_P1;HPM_P2
2022/11/08 00:02:05;;;;;;;7.78;4.25;;;;;;;10.37;86.48;99930.72;4908663;28;20046;-91
2022/11/08 00:04:33;;;;;;;8.27;4.15;;;;;;;10.42;86.55;99935.66;4923592;28;20509;-93
2022/11/08 00:15:16;;;;;;;8.27;4.40;;;;;;;10.39;86.60;99926.13;4887441;28;20404;-92
2022/11/08 00:17:43;;;;;;;7.63;4.13;;;;;;;10.39;86.43;99930.59;4904939;28;20054;-93
2022/11/08 00:20:10;;;;;;;8.00;4.40;;;;;;;10.37;86.19;99922.75;4926825;28;20066;-89
2022/11/08 00:22:36;;;;;;;8.10;4.60;;;;;;;10.36;86.14;99921.09;4964274;28;20097;-90
2022/11/08 00:25:03;;;;;;;5.05;3.90;;;;;;;10.33;85.96;99926.66;4972443;28;20498;-90
2022/11/08 00:27:30;;;;;;;5.95;4.20;;;;;;;10.24;86.29;99926.59;4987710;28;20050;-92
2022/11/08 00:29:57;;;;;;;5.57;3.88;;;;;;;10.21;85.71;99928.53;4970253;28;20052;-93
2022/11/08 00:32:25;;;;;;;6.43;3.72;;;;;;;10.19;85.58;99922.50;4960571;28;20061;-91
2022/11/08 00:34:52;;;;;;;7.25;3.78;;;;;;;10.13;85.07;99920.38;4976223;28;20043;-91
2022/11/08 00:37:20;;;;;;;9.43;4.22;;;;;;;10.14;84.34;99918.56;4950449;28;20528;-91
2022/11/08 00:39:47;;;;;;;9.45;4.32;;;;;;;10.11;84.59;99916.19;4951888;28;20466;-90
2022/11/08 00:42:14;;;;;;;10.40;4.40;;;;;;;10.13;85.24;99911.59;4960224;28;20118;-90
2022/11/08 00:44:41;;;;;;;6.05;4.10;;;;;;;10.10;84.89;99915.34;4972308;28;20116;-92
2022/11/08 00:47:08;;;;;;;9.35;4.10;;;;;;;10.13;84.63;99915.06;4970041;28;20042;-92
2022/11/08 00:49:35;;;;;;;8.60;4.10;;;;;;;10.07;84.50;99906.78;4939869;28;20057;-89
2022/11/08 00:52:01;;;;;;;10.05;4.55;;;;;;;10.11;84.47;99905.56;4956396;28;20641;-91
2022/11/08 00:54:28;;;;;;;8.77;4.43;;;;;;;10.14;85.02;99900.00;4985250;28;20056;-91
2022/11/08 00:56:55;;;;;;;6.85;4.32;;;;;;;10.08;85.28;99904.00;4957505;28;20056;-91
2022/11/08 00:59:22;;;;;;;6.80;4.60;;;;;;;10.05;84.62;99906.06;4976560;28;20121;-93
2022/11/08 01:01:48;;;;;;;9.15;4.50;;;;;;;10.00;84.57;99903.84;4976207;28;20073;-92
2022/11/08 01:04:17;;;;;;;9.18;4.60;;;;;;;9.98;84.36;99906.59;4934972;28;20125;-91
2022/11/08 01:06:44;;;;;;;10.20;4.30;;;;;;;9.94;84.67;99904.34;4943196;28;20494;-91
2022/11/08 01:09:11;;;;;;;8.68;4.45;;;;;;;9.88;84.29;99895.09;4967787;28;20708;-92
2022/11/08 01:11:39;;;;;;;10.13;3.75;;;;;;;9.81;83.84;99893.91;4986454;28;20069;-91
2022/11/08 01:14:05;;;;;;;7.38;4.40;;;;;;;9.80;84.02;99894.91;4969972;28;20057;-91
2022/11/08 01:16:33;;;;;;;10.20;4.25;;;;;;;9.82;83.44;99890.31;4954310;28;20069;-92
2022/11/08 01:19:00;;;;;;;9.93;4.38;;;;;;;9.77;83.50;99888.03;4972562;28;20042;-91
2022/11/08 01:21:27;;;;;;;6.32;4.38;;;;;;;9.77;83.54;99890.69;4956555;28;20069;-91
2022/11/08 01:23:54;;;;;;;10.75;4.40;;;;;;;9.76;83.55;99898.78;4955510;28;20057;-92
2022/11/08 01:26:23;;;;;;;9.32;4.45;;;;;;;9.71;83.01;99900.97;4961233;28;20050;-90
2022/11/08 01:28:50;;;;;;;5.47;3.60;;;;;;;9.73;83.32;99894.56;4968150;28;20390;-91
2022/11/08 01:31:20;;;;;;;6.50;3.60;;;;;;;9.71;82.65;99895.66;4965884;28;20050;-92
2022/11/08 01:33:47;;;;;;;7.88;3.58;;;;;;;9.78;83.01;99886.22;4938096;28;20051;-91
2022/11/08 01:36:20;;;;;;;12.85;4.60;;;;;;;9.72;82.80;99887.59;4939802;28;20045;-91
2022/11/08 01:38:47;;;;;;;5.18;4.00;;;;;;;9.77;83.30;99879.25;4919002;28;20042;-91
2022/11/08 01:41:15;;;;;;;8.95;4.30;;;;;;;9.74;83.31;99880.34;4933188;28;20042;-92
2022/11/08 01:43:43;;;;;;;8.23;4.35;;;;;;;9.73;83.32;99883.13;4953054;28;20042;-91
2022/11/08 01:46:28;;;;;;;7.38;4.20;;;;;;;9.46;82.16;99873.84;4968430;28;20413;-91
2022/11/08 01:49:08;;;;;;;6.18;4.07;;;;;;;9.51;81.88;99874.31;4910594;28;20058;-91
2022/11/08 01:51:42;;;;;;;7.55;3.80;;;;;;;9.55;81.78;99875.75;4957192;28;20145;-91
2022/11/08 01:54:13;;;;;;;7.00;3.95;;;;;;;9.58;81.95;99866.69;4937978;28;20126;-91
2022/11/08 01:56:40;;;;;;;9.25;4.18;;;;;;;9.65;82.46;99861.72;4947358;28;20097;-92
2022/11/08 01:59:09;;;;;;;8.13;4.07;;;;;;;9.64;82.28;99858.25;4965369;28;20129;-90
2022/11/08 02:01:37;;;;;;;5.28;3.95;;;;;;;9.61;82.43;99850.50;4924146;28;20061;-92
2022/11/08 02:04:04;;;;;;;8.07;4.15;;;;;;;9.55;82.32;99856.34;4921245;28;20379;-88
2022/11/08 02:06:33;;;;;;;6.57;4.05;;;;;;;9.57;83.25;99846.47;4932359;28;20043;-91
2022/11/08 02:09:01;;;;;;;9.02;4.00;;;;;;;9.53;82.43;99850.31;4932520;28;20047;-91
2022/11/08 02:11:28;;;;;;;5.53;4.32;;;;;;;9.47;82.35;99838.44;4959054;28;20050;-91
2022/11/08 02:13:55;;;;;;;6.32;4.13;;;;;;;9.50;82.25;99829.38;4952167;28;20050;-91
2022/11/08 02:16:22;;;;;;;6.55;3.50;;;;;;;9.47;82.79;99827.00;4950221;28;20553;-91
2022/11/08 02:18:49;;;;;;;5.60;4.10;;;;;;;9.48;82.41;99829.50;4969837;28;20046;-92
2022/11/08 02:21:25;;;;;;;6.15;3.80;;;;;;;9.40;81.06;99821.34;4970737;28;20069;-91
2022/11/08 02:23:51;;;;;;;12.95;4.10;;;;;;;9.45;82.03;99823.63;4978174;28;20047;-92
2022/11/08 02:26:21;;;;;;;5.93;4.00;;;;;;;9.36;81.22;99819.94;4967238;28;20038;-91
2022/11/08 02:28:48;;;;;;;5.72;3.78;;;;;;;9.37;81.39;99823.44;4929704;28;20075;-90
2022/11/08 02:31:17;;;;;;;8.73;4.63;;;;;;;9.33;81.37;99825.50;4967120;28;20152;-92
2022/11/08 02:33:45;;;;;;;7.47;4.05;;;;;;;9.31;81.56;99824.78;4961792;28;20121;-92
2022/11/08 02:36:23;;;;;;;7.30;4.40;;;;;;;9.19;81.59;99824.00;4968954;28;20042;-90
2022/11/08 02:38:52;;;;;;;7.07;4.28;;;;;;;9.28;82.25;99812.63;4934880;28;20054;-91
2022/11/08 02:41:19;;;;;;;6.20;4.07;;;;;;;9.22;81.15;99813.13;4968526;28;20093;-91
2022/11/08 02:43:46;;;;;;;6.20;4.07;;;;;;;9.17;81.33;99812.69;4967678;28;20057;-92
2022/11/08 02:46:13;;;;;;;7.32;3.83;;;;;;;9.20;81.15;99804.47;4969573;28;20104;-91
2022/11/08 02:48:40;;;;;;;9.32;4.32;;;;;;;9.16;81.06;99813.66;4984801;28;20050;-88
2022/11/08 02:51:06;;;;;;;9.05;4.07;;;;;;;9.16;80.87;99813.66;4958021;28;20042;-90
2022/11/08 02:53:34;;;;;;;7.18;4.20;;;;;;;9.13;80.43;99811.25;4953226;28;20046;-91
2022/11/08 02:56:00;;;;;;;8.40;4.13;;;;;;;9.08;80.48;99816.94;4957854;28;20114;-91
2022/11/08 02:58:27;;;;;;;10.32;4.65;;;;;;;9.08;80.83;99808.13;4941774;28;20053;-92
2022/11/08 03:00:54;;;;;;;5.38;3.78;;;;;;;9.02;80.87;99809.50;4955545;28;20054;-92
2022/11/08 03:03:21;;;;;;;5.03;3.90;;;;;;;9.05;80.92;99808.41;4963884;28;20470;-93
2022/11/08 03:05:48;;;;;;;7.78;4.05;;;;;;;9.03;80.98;99807.69;4955416;28;20056;-93
2022/11/08 03:08:14;;;;;;;6.68;4.18;;;;;;;9.00;80.53;99807.94;4948961;28;20042;-91
2022/11/08 03:10:42;;;;;;;9.05;3.50;;;;;;;8.98;80.77;99809.84;4953948;28;20077;-92
2022/11/08 03:13:09;;;;;;;5.65;3.60;;;;;;;8.97;80.65;99809.03;4962681;28;20042;-91
2022/11/08 03:15:35;;;;;;;7.13;4.20;;;;;;;8.97;80.81;99819.63;4955046;28;20065;-90
2022/11/08 03:18:02;;;;;;;10.93;3.83;;;;;;;9.03;80.40;99808.53;4972322;28;20502;-91
2022/11/08 03:20:29;;;;;;;6.40;3.75;;;;;;;8.96;81.07;99817.13;4968715;28;20101;-91
2022/11/08 03:23:01;;;;;;;6.43;3.63;;;;;;;9.07;80.92;99812.59;4953486;28;20046;-91
2022/11/08 03:25:28;;;;;;;5.13;4.40;;;;;;;9.02;80.59;99811.31;4937921;28;20047;-92
2022/11/08 03:28:04;;;;;;;6.95;3.92;;;;;;;9.07;80.32;99807.31;4951759;28;20059;-91
2022/11/08 03:30:31;;;;;;;6.85;4.00;;;;;;;9.15;81.30;99805.84;4935851;28;20530;-90
2022/11/08 03:32:58;;;;;;;7.28;3.78;;;;;;;9.12;81.27;99807.75;4987083;28;20050;-92
2022/11/08 03:35:25;;;;;;;8.63;4.15;;;;;;;9.14;81.48;99805.00;4960569;28;20473;-92
2022/11/08 03:37:53;;;;;;;9.18;4.40;;;;;;;9.11;81.25;99803.44;4956604;28;20056;-92
2022/11/08 03:40:20;;;;;;;13.23;4.55;;;;;;;9.13;81.53;99795.34;4929434;28;20499;-90
2022/11/08 03:42:47;;;;;;;5.53;4.45;;;;;;;9.20;81.06;99808.94;4937753;28;20050;-89
2022/11/08 03:45:15;;;;;;;13.02;4.60;;;;;;;9.11;81.22;99811.38;4957828;28;20482;-91
2022/11/08 03:47:43;;;;;;;6.82;3.85;;;;;;;9.11;81.01;99810.56;4971785;28;20046;-92
2022/11/08 03:50:11;;;;;;;6.95;4.05;;;;;;;9.09;81.13;99804.53;4973164;28;20058;-92
2022/11/08 03:52:46;;;;;;;8.07;3.80;;;;;;;9.03;80.65;99810.31;4954139;28;20124;-91
2022/11/08 03:55:13;;;;;;;8.15;4.00;;;;;;;9.06;81.12;99810.94;4950086;28;20434;-91
2022/11/08 03:57:41;;;;;;;5.40;3.60;;;;;;;8.98;80.64;99801.91;4946949;28;20047;-90
2022/11/08 04:00:10;;;;;;;7.30;3.92;;;;;;;8.91;81.11;99802.44;4969786;28;20050;-91
2022/11/08 04:02:37;;;;;;;7.15;4.28;;;;;;;8.91;81.02;99796.31;4970231;28;20049;-91
2022/11/08 04:05:04;;;;;;;6.00;3.78;;;;;;;8.92;80.78;99800.63;4970782;28;20046;-91
2022/11/08 04:07:33;;;;;;;9.18;4.13;;;;;;;8.91;80.51;99802.44;4968292;28;20066;-91
2022/11/08 04:09:59;;;;;;;13.00;4.35;;;;;;;8.88;80.70;99800.03;4953946;28;20054;-92
2022/11/08 04:16:13;;;;;;;6.85;3.85;;;;;;;8.85;80.51;99791.50;4937181;28;20038;-91
2022/11/08 04:21:29;;;;;;;12.15;5.95;;;;;;;8.77;80.74;99789.47;4954702;28;20046;-92
2022/11/08 04:23:56;;;;;;;6.03;3.85;;;;;;;8.76;80.42;99779.03;4970425;28;20054;-91
2022/11/08 04:26:22;;;;;;;7.95;3.45;;;;;;;8.75;79.96;99772.03;4974144;28;20047;-92
2022/11/08 04:28:49;;;;;;;8.52;3.70;;;;;;;8.76;79.84;99773.72;4947092;28;20047;-91
2022/11/08 04:31:18;;;;;;;13.05;5.28;;;;;;;8.76;79.23;99773.72;4935922;28;20047;-90
2022/11/08 04:33:45;;;;;;;9.50;4.60;;;;;;;8.65;79.48;99774.59;4951014;28;20492;-91
2022/11/08 04:36:15;;;;;;;12.65;5.00;;;;;;;8.48;79.47;99770.69;4970422;28;20511;-91
2022/11/08 04:38:42;;;;;;;14.50;6.43;;;;;;;8.42;79.78;99769.38;4956025;28;20054;-90
2022/11/08 04:41:11;;;;;;;16.20;6.97;;;;;;;8.40;79.13;99762.53;4921015;28;20475;-90
2022/11/08 04:43:38;;;;;;;9.90;4.97;;;;;;;8.42;78.89;99756.16;4952745;28;20042;-91
2022/11/08 04:46:13;;;;;;;5.90;4.10;;;;;;;8.40;78.91;99754.59;4938452;28;20043;-91
2022/11/08 04:48:41;;;;;;;10.30;4.28;;;;;;;8.42;78.91;99748.19;4938736;28;20058;-90
2022/11/08 04:51:28;;;;;;;6.47;3.65;;;;;;;8.20;78.73;99745.56;4935303;28;20047;-90
2022/11/08 04:53:56;;;;;;;6.35;3.60;;;;;;;8.35;78.92;99744.34;4935646;28;20101;-91
2022/11/08 04:56:24;;;;;;;12.90;4.07;;;;;;;8.38;79.37;99745.88;4955604;28;20046;-90
2022/11/08 04:58:53;;;;;;;6.43;3.42;;;;;;;8.38;78.92;99743.25;4987950;28;20045;-90
2022/11/08 05:01:22;;;;;;;6.32;3.63;;;;;;;8.37;78.65;99747.69;4954466;28;20046;-91
2022/11/08 05:03:50;;;;;;;6.78;4.55;;;;;;;8.27;78.58;99733.53;4964914;28;20453;-92
2022/11/08 05:06:19;;;;;;;7.57;4.38;;;;;;;8.25;78.40;99735.47;4947644;28;20487;-89
2022/11/08 05:08:46;;;;;;;9.85;4.50;;;;;;;8.24;78.68;99745.19;4990507;28;21013;-89
2022/11/08 05:11:16;;;;;;;8.35;4.25;;;;;;;8.21;78.74;99744.59;4992443;28;20493;-89
2022/11/08 05:13:43;;;;;;;9.85;5.15;;;;;;;8.26;78.36;99735.31;4983749;28;20074;-89
2022/11/08 05:16:18;;;;;;;7.75;4.75;;;;;;;8.12;78.66;99738.25;4949222;28;20043;-89
2022/11/08 05:18:45;;;;;;;6.80;4.45;;;;;;;8.14;78.10;99733.69;4968955;28;20054;-90
2022/11/08 05:24:00;;;;;;;8.45;5.32;;;;;;;8.15;78.23;99732.69;4968561;28;20046;-89
2022/11/08 05:26:28;;;;;;;5.60;4.47;;;;;;;8.00;79.55;99729.47;4953511;28;20085;-90
2022/11/08 05:28:54;;;;;;;6.55;4.25;;;;;;;7.95;79.46;99733.44;4955620;28;20046;-89
2022/11/08 05:31:21;;;;;;;5.82;4.18;;;;;;;7.97;79.53;99737.66;4931127;28;20046;-90
2022/11/08 05:33:48;;;;;;;8.07;4.80;;;;;;;7.94;79.28;99735.25;4933135;28;20070;-91
2022/11/08 05:36:15;;;;;;;7.78;4.25;;;;;;;7.82;78.67;99744.16;4915189;28;20064;-91
2022/11/08 05:38:42;;;;;;;6.03;4.03;;;;;;;7.81;78.31;99732.75;4933870;28;20413;-88
2022/11/08 05:41:16;;;;;;;7.18;4.15;;;;;;;7.76;77.76;99737.56;4932412;28;20047;-90
2022/11/08 05:43:45;;;;;;;6.03;3.88;;;;;;;7.87;77.96;99736.69;4945554;28;20102;-91
2022/11/08 05:46:12;;;;;;;9.05;4.10;;;;;;;7.79;77.82;99732.03;4967138;28;20494;-92
2022/11/08 05:48:41;;;;;;;4.93;3.88;;;;;;;7.80;77.76;99731.03;4944526;28;20041;-83
2022/11/08 05:51:09;;;;;;;8.10;3.97;;;;;;;7.77;77.53;99727.81;4968688;28;20047;-83
2022/11/08 05:53:36;;;;;;;8.15;4.50;;;;;;;7.76;78.12;99719.03;4964032;28;20110;-84
2022/11/08 05:56:03;;;;;;;6.25;3.95;;;;;;;7.71;77.70;99723.84;4964814;28;20514;-83
2022/11/08 05:58:31;;;;;;;8.25;4.25;;;;;;;7.77;77.79;99730.44;4953448;28;20105;-83
2022/11/08 06:01:10;;;;;;;8.35;4.43;;;;;;;7.67;77.21;99724.22;4986234;28;20050;-83
2022/11/08 06:03:37;;;;;;;7.43;4.95;;;;;;;7.73;77.61;99729.00;4976026;28;20101;-80
2022/11/08 06:06:09;;;;;;;13.23;4.93;;;;;;;7.70;77.45;99724.78;4943984;28;20057;-81
2022/11/08 06:08:35;;;;;;;6.78;4.90;;;;;;;7.70;77.96;99719.50;4933380;28;20104;-80
2022/11/08 06:11:11;;;;;;;6.57;4.47;;;;;;;7.66;77.72;99730.44;4970135;28;20051;-80
2022/11/08 06:13:38;;;;;;;5.90;4.13;;;;;;;7.77;77.73;99727.81;4964173;28;20101;-81
2022/11/08 06:16:07;;;;;;;8.05;4.60;;;;;;;7.67;77.99;99727.69;4967647;28;20061;-81
2022/11/08 06:18:35;;;;;;;8.60;5.47;;;;;;;7.64;78.48;99729.75;4992230;28;20042;-81
2022/11/08 06:21:02;;;;;;;7.05;4.43;;;;;;;7.67;78.26;99724.22;4981942;28;20053;-81
2022/11/08 06:23:30;;;;;;;8.85;4.55;;;;;;;7.69;78.11;99724.94;4983540;28;20149;-80
2022/11/08 06:25:57;;;;;;;7.40;4.82;;;;;;;7.59;78.02;99725.63;4981118;28;20058;-81
2022/11/08 06:28:24;;;;;;;6.63;4.30;;;;;;;7.55;78.09;99723.34;4974596;28;20076;-81
2022/11/08 06:30:50;;;;;;;6.95;3.97;;;;;;;7.61;77.94;99726.38;4968559;28;20092;-81
2022/11/08 06:33:18;;;;;;;7.75;3.85;;;;;;;7.57;77.90;99724.91;4984357;28;20078;-82
2022/11/08 06:35:46;;;;;;;6.72;4.07;;;;;;;7.57;77.95;99729.38;4972619;28;20050;-86
2022/11/08 06:38:13;;;;;;;5.00;3.80;;;;;;;7.60;77.74;99740.53;4998770;28;20143;-85
2022/11/08 06:40:40;;;;;;;6.07;4.07;;;;;;;7.53;78.30;99730.56;4984641;28;20076;-83
2022/11/08 06:43:06;;;;;;;9.40;4.95;;;;;;;7.58;77.64;99746.88;4982646;28;20046;-84
2022/11/08 06:45:33;;;;;;;7.97;5.28;;;;;;;7.57;78.00;99735.47;4997092;28;20053;-85
2022/11/08 06:48:01;;;;;;;8.15;5.15;;;;;;;7.54;78.48;99732.25;4974455;28;20060;-83
2022/11/08 06:50:29;;;;;;;7.95;4.88;;;;;;;7.61;78.19;99729.00;4956567;28;20126;-83
2022/11/08 06:52:56;;;;;;;7.80;5.43;;;;;;;7.65;78.27;99731.41;4951002;28;20388;-84
2022/11/08 06:55:22;;;;;;;8.98;6.72;;;;;;;7.57;78.73;99727.56;4951173;28;20046;-84
2022/11/08 06:57:49;;;;;;;9.93;5.80;;;;;;;7.59;78.83;99730.94;4950717;28;20102;-86
2022/11/08 07:00:16;;;;;;;14.15;6.45;;;;;;;7.55;79.01;99736.56;4942695;28;20059;-85
2022/11/08 07:02:43;;;;;;;13.68;6.90;;;;;;;7.64;78.97;99732.38;4969451;28;20130;-84
2022/11/08 07:05:10;;;;;;;9.80;6.03;;;;;;;7.58;79.20;99741.59;5003348;28;20101;-84
2022/11/08 07:07:38;;;;;;;14.40;6.50;;;;;;;7.52;80.17;99739.44;4986750;28;20046;-84
2022/11/08 07:10:05;;;;;;;21.58;7.07;;;;;;;7.51;80.35;99732.50;4983741;28;20042;-84
2022/11/08 07:12:31;;;;;;;9.30;5.57;;;;;;;7.59;80.72;99736.22;4985526;28;20101;-83
2022/11/08 07:14:58;;;;;;;11.32;5.57;;;;;;;7.64;80.86;99730.56;4977700;28;20043;-84
2022/11/08 07:17:25;;;;;;;7.72;5.68;;;;;;;7.70;80.47;99734.53;4950031;28;20042;-84
2022/11/08 07:19:52;;;;;;;13.18;6.18;;;;;;;7.77;80.40;99735.75;4986491;28;20049;-84
2022/11/08 07:22:18;;;;;;;11.63;5.80;;;;;;;7.75;79.97;99733.22;4976268;28;20695;-83
2022/11/08 07:24:45;;;;;;;10.43;5.30;;;;;;;7.80;79.82;99735.50;4953923;28;20134;-84
2022/11/08 07:27:12;;;;;;;14.52;5.72;;;;;;;7.80;80.01;99732.84;4952632;28;20082;-83
2022/11/08 07:29:39;;;;;;;8.93;5.82;;;;;;;7.77;79.99;99733.94;4936741;28;20055;-84
2022/11/08 07:32:05;;;;;;;14.75;5.85;;;;;;;7.81;80.22;99739.81;4966836;28;20046;-85
2022/11/08 07:34:32;;;;;;;14.70;5.38;;;;;;;7.83;80.24;99740.53;4928569;28;20757;-84
2022/11/08 07:36:59;;;;;;;11.50;4.97;;;;;;;7.81;80.35;99747.75;4977206;28;20046;-83
2022/11/08 07:39:25;;;;;;;10.90;5.05;;;;;;;7.80;80.80;99746.06;4957646;28;20042;-83
2022/11/08 07:41:52;;;;;;;7.95;5.07;;;;;;;7.82;80.80;99746.78;4966430;28;20215;-83
2022/11/08 07:44:19;;;;;;;6.00;4.50;;;;;;;7.87;80.82;99751.72;4932719;28;20498;-83
2022/11/08 07:46:46;;;;;;;7.90;5.40;;;;;;;7.95;80.79;99742.22;4966294;28;20514;-84
2022/11/08 07:49:12;;;;;;;15.27;7.10;;;;;;;7.94;80.17;99752.94;4963768;28;20077;-83
2022/11/08 07:51:39;;;;;;;12.15;6.85;;;;;;;8.00;80.50;99742.69;4976287;28;20127;-83
2022/11/08 07:54:06;;;;;;;12.93;6.38;;;;;;;8.03;80.32;99749.53;4982116;28;20042;-84
2022/11/08 07:56:32;;;;;;;11.48;6.82;;;;;;;8.03;80.66;99744.25;4983159;28;20054;-84
2022/11/08 07:58:59;;;;;;;12.27;6.90;;;;;;;8.11;80.93;99743.66;4980692;28;20113;-83
2022/11/08 08:01:25;;;;;;;17.63;8.88;;;;;;;8.11;80.70;99755.06;4986686;28;20129;-84
2022/11/08 08:03:52;;;;;;;23.25;9.18;;;;;;;8.17;80.21;99741.38;4994942;28;20089;-85
2022/11/08 08:06:19;;;;;;;21.77;10.40;;;;;;;8.14;81.36;99733.69;4987230;28;20130;-85
2022/11/08 08:08:46;;;;;;;22.80;11.52;;;;;;;8.16;81.08;99741.47;4968344;28;20058;-84
2022/11/08 08:11:13;;;;;;;23.75;10.88;;;;;;;8.19;81.01;99731.50;4969932;28;21002;-83
2022/11/08 08:13:40;;;;;;;27.50;11.18;;;;;;;8.21;81.08;99731.38;4971955;28;20097;-84
2022/11/08 08:16:07;;;;;;;22.67;9.60;;;;;;;8.19;81.10;99717.41;4983947;28;20133;-84
2022/11/08 08:18:35;;;;;;;21.10;9.30;;;;;;;8.18;81.30;99734.25;4970116;28;20074;-85
2022/11/08 08:21:01;;;;;;;21.38;10.35;;;;;;;8.27;81.43;99730.88;4982871;28;20099;-83
2022/11/08 08:23:28;;;;;;;23.92;9.75;;;;;;;8.24;81.78;99739.03;4968944;28;20050;-84
2022/11/08 08:25:55;;;;;;;19.17;10.05;;;;;;;8.26;81.47;99724.72;4999724;28;20049;-84
2022/11/08 08:28:21;;;;;;;18.50;9.63;;;;;;;8.24;81.51;99725.81;4969217;28;20494;-84
2022/11/08 08:30:48;;;;;;;21.10;10.13;;;;;;;8.36;81.05;99718.72;4999646;28;20426;-83
2022/11/08 08:33:16;;;;;;;22.90;9.93;;;;;;;8.36;81.67;99721.34;4964251;28;20050;-83
2022/11/08 08:36:00;;;;;;;13.95;7.80;;;;;;;8.31;82.19;99712.94;4967363;28;20516;-84
2022/11/08 08:38:27;;;;;;;16.63;9.38;;;;;;;8.39;81.90;99711.38;4974348;28;20125;-83
2022/11/08 08:40:54;;;;;;;15.95;8.82;;;;;;;8.44;81.99;99711.00;4947704;28;20081;-82
2022/11/08 08:43:21;;;;;;;16.52;8.68;;;;;;;8.43;81.96;99704.06;4969260;28;20042;-83
2022/11/08 08:45:48;;;;;;;18.48;9.52;;;;;;;8.45;82.07;99704.78;4970727;28;20397;-84
2022/11/08 08:48:15;;;;;;;20.65;10.38;;;;;;;8.53;81.71;99722.66;4981079;28;20042;-84
2022/11/08 08:50:42;;;;;;;18.27;8.98;;;;;;;8.52;82.32;99705.94;4963917;28;20101;-84
2022/11/08 08:53:09;;;;;;;18.65;9.18;;;;;;;8.52;82.72;99713.88;4998239;28;20126;-83
2022/11/08 08:55:38;;;;;;;19.63;10.30;;;;;;;8.53;83.38;99706.78;4986254;28;21649;-84
2022/11/08 08:58:05;;;;;;;17.00;8.98;;;;;;;8.63;83.13;99708.56;4969657;28;20046;-83
2022/11/08 09:00:31;;;;;;;20.90;9.75;;;;;;;8.65;83.38;99713.69;5004776;28;20046;-86
2022/11/08 09:03:18;;;;;;;17.65;9.02;;;;;;;8.69;83.33;99715.13;4978972;28;20428;-84
2022/11/08 09:05:46;;;;;;;15.75;8.48;;;;;;;8.74;83.20;99720.06;4981918;28;20077;-84
2022/11/08 09:08:13;;;;;;;15.43;8.80;;;;;;;8.76;83.32;99723.44;4984586;28;20086;-83
2022/11/08 09:10:41;;;;;;;15.85;8.57;;;;;;;8.77;84.11;99733.03;4957449;28;20063;-83
2022/11/08 09:13:08;;;;;;;15.07;7.65;;;;;;;8.83;84.17;99732.56;4986111;28;20062;-84
2022/11/08 09:15:34;;;;;;;11.35;7.03;;;;;;;8.83;84.27;99724.59;4985005;28;20098;-84
2022/11/08 09:18:02;;;;;;;11.85;7.13;;;;;;;8.87;84.28;99726.00;4982564;28;20050;-83
2022/11/08 09:20:28;;;;;;;15.13;8.98;;;;;;;8.93;84.21;99729.94;4976220;28;20113;-84
2022/11/08 09:23:00;;;;;;;14.40;6.32;;;;;;;8.93;84.19;99732.59;4949149;28;20050;-83
2022/11/08 09:25:27;;;;;;;11.57;5.95;;;;;;;8.95;83.93;99734.16;4947246;28;20138;-83
2022/11/08 09:27:54;;;;;;;11.77;5.90;;;;;;;9.05;83.72;99728.94;4966634;28;20085;-84
2022/11/08 09:30:20;;;;;;;13.75;5.97;;;;;;;9.08;83.86;99737.47;4977078;28;21222;-83
2022/11/08 09:32:47;;;;;;;10.50;6.13;;;;;;;9.11;84.42;99731.91;4984723;28;20052;-84
2022/11/08 09:35:29;;;;;;;14.23;6.65;;;;;;;9.14;84.77;99730.81;4965905;28;20046;-85
2022/11/08 09:37:57;;;;;;;10.48;5.32;;;;;;;9.25;84.24;99730.75;4984396;28;20046;-84
2022/11/08 09:40:31;;;;;;;10.38;5.47;;;;;;;9.32;84.01;99729.25;4965132;28;20042;-84
2022/11/08 09:43:20;;;;;;;9.85;5.90;;;;;;;9.34;83.82;99721.19;4974537;28;20528;-83
2022/11/08 09:45:48;;;;;;;10.85;6.65;;;;;;;9.44;83.85;99716.78;4957186;28;20443;-84
2022/11/08 09:48:33;;;;;;;14.55;6.75;;;;;;;9.41;84.18;99722.31;4983959;28;20049;-84
2022/11/08 09:51:14;;;;;;;12.93;7.55;;;;;;;9.50;83.91;99713.59;4940446;28;20070;-84
2022/11/08 09:53:58;;;;;;;14.00;6.72;;;;;;;9.49;84.63;99727.84;4960465;28;20043;-84
2022/11/08 09:56:28;;;;;;;;;;;;;;;9.44;85.15;99724.72;4933188;28;20058;-82
2022/11/08 09:59:19;;;;;;;12.82;6.20;;;;;;;9.58;84.40;99723.53;4982140;28;19934;-83
2022/11/08 10:01:47;;;;;;;10.38;6.82;;;;;;;9.72;84.01;99733.81;4967777;28;20047;-84
2022/11/08 10:04:21;;;;;;;9.52;6.03;;;;;;;9.79;84.15;99736.75;4968138;28;20075;-84
2022/11/08 10:06:56;;;;;;;;;;;;;;;9.69;85.42;99736.72;4932492;28;20670;-84
2022/11/08 10:09:33;;;;;;;10.43;5.57;;;;;;;9.86;84.33;99729.09;4944879;28;19922;-83
2022/11/08 10:12:21;;;;;;;12.43;6.03;;;;;;;9.87;84.68;99731.63;4963451;28;20503;-84
2022/11/08 10:15:03;;;;;;;8.45;5.10;;;;;;;9.92;84.29;99726.78;4927189;28;20051;-83
2022/11/08 10:17:41;;;;;;;6.78;4.57;;;;;;;9.97;83.44;99735.16;4979038;28;20057;-84
2022/11/08 10:20:17;;;;;;;8.50;4.85;;;;;;;9.98;83.54;99739.47;4963113;28;20038;-83
2022/11/08 10:22:53;;;;;;;11.13;5.50;;;;;;;9.97;83.11;99731.66;4946796;28;20039;-84
2022/11/08 10:25:32;;;;;;;10.15;4.78;;;;;;;9.96;83.15;99725.50;4934452;28;20502;-83
2022/11/08 10:28:00;;;;;;;8.45;5.18;;;;;;;10.03;83.26;99733.78;4962290;28;20185;-87
2022/11/08 10:30:34;;;;;;;9.05;4.60;;;;;;;10.02;83.75;99723.28;4940168;28;20156;-89
2022/11/08 10:33:01;;;;;;;7.85;4.22;;;;;;;10.08;83.38;99720.94;4984468;28;20046;-90
2022/11/08 10:35:36;;;;;;;12.25;4.38;;;;;;;10.12;84.15;99713.53;4983177;28;20042;-90
2022/11/08 10:38:16;;;;;;;7.63;4.00;;;;;;;10.17;84.12;99720.13;4958760;28;20042;-89
2022/11/08 10:41:12;;;;;;;8.27;4.20;;;;;;;10.17;83.81;99714.81;4985486;28;20512;-91
2022/11/08 10:43:43;;;;;;;7.95;4.75;;;;;;;10.29;83.54;99707.63;4859780;28;20058;-90
2022/11/08 10:46:36;;;;;;;6.15;4.32;;;;;;;10.29;83.68;99706.78;4969601;28;20109;-91
2022/11/08 10:49:38;;;;;;;7.65;4.82;;;;;;;10.32;83.82;99704.69;4912756;28;20047;-89
2022/11/08 10:52:11;;;;;;;8.38;4.90;;;;;;;10.43;83.24;99701.06;4935093;28;20065;-88
2022/11/08 10:54:55;;;;;;;7.20;4.70;;;;;;;10.44;83.25;99694.78;4985037;28;20038;-90
2022/11/08 10:57:31;;;;;;;10.68;5.07;;;;;;;10.56;82.85;99693.69;4987094;28;20050;-86
2022/11/08 11:00:27;;;;;;;7.40;4.47;;;;;;;10.55;83.02;99688.50;4983176;28;20379;-91
2022/11/08 11:03:15;;;;;;;8.32;4.30;;;;;;;10.65;82.80;99687.50;4934109;28;20491;-90
2022/11/08 11:05:53;;;;;;;5.88;4.50;;;;;;;10.73;82.27;99680.66;4971318;28;20074;-89
2022/11/08 11:08:21;;;;;;;9.10;5.28;;;;;;;10.75;82.44;99678.72;4938703;28;20050;-91
2022/11/08 11:10:49;;;;;;;9.02;4.22;;;;;;;10.79;82.63;99670.34;4973612;28;20057;-89
2022/11/08 11:13:26;;;;;;;9.10;4.50;;;;;;;10.75;82.56;99674.25;4939070;28;20042;-90
2022/11/08 11:15:56;;;;;;;5.07;3.67;;;;;;;10.84;82.07;99668.09;4975304;28;20058;-88
2022/11/08 11:18:34;;;;;;;6.50;4.18;;;;;;;10.86;82.24;99670.59;4975606;28;20489;-89
2022/11/08 11:21:07;;;;;;;7.95;4.22;;;;;;;10.96;82.34;99673.25;4938494;28;20047;-90
2022/11/08 11:23:53;;;;;;;6.93;4.07;;;;;;;10.93;82.32;99668.22;4965827;28;20070;-90
2022/11/08 11:26:39;;;;;;;7.13;3.97;;;;;;;11.04;82.39;99666.25;4938186;28;20043;-89
2022/11/08 11:29:05;;;;;;;8.43;4.75;;;;;;;11.13;82.41;99666.38;4921188;28;20418;-90
2022/11/08 11:31:34;;;;;;;6.57;3.47;;;;;;;11.17;82.15;99663.28;4934977;28;20047;-90
2022/11/08 11:34:16;;;;;;;5.55;3.58;;;;;;;11.16;82.20;99658.09;4975023;28;20050;-91
2022/11/08 11:36:45;;;;;;;9.43;3.50;;;;;;;11.25;82.10;99650.09;4974745;28;20432;-89
2022/11/08 11:39:21;;;;;;;9.23;3.72;;;;;;;11.27;81.72;99648.16;5021717;28;20413;-90
2022/11/08 11:41:54;;;;;;;7.80;3.80;;;;;;;11.35;81.84;99646.56;4962794;28;21566;-90
2022/11/08 11:44:27;;;;;;;8.45;3.28;;;;;;;11.40;81.76;99653.13;4999611;28;20437;-91
2022/11/08 11:47:12;;;;;;;9.32;3.58;;;;;;;11.39;81.91;99651.44;4994984;28;20490;-91
2022/11/08 11:49:42;;;;;;;6.25;3.75;;;;;;;11.49;82.02;99643.44;4984257;28;20065;-91
2022/11/08 11:52:17;;;;;;;7.53;3.65;;;;;;;11.51;81.71;99647.63;4996283;28;20057;-90
2022/11/08 11:54:47;;;;;;;6.50;4.05;;;;;;;11.58;81.90;99639.09;4982035;28;20052;-91
2022/11/08 11:57:39;;;;;;;6.05;4.13;;;;;;;11.55;82.03;99636.69;4982603;28;20041;-91
2022/11/08 12:00:12;;;;;;;6.15;3.25;;;;;;;11.61;81.73;99631.63;4961818;28;20518;-90
2022/11/08 12:02:46;;;;;;;7.03;3.65;;;;;;;11.62;81.74;99627.97;4963668;28;20042;-91
2022/11/08 12:05:25;;;;;;;7.68;3.80;;;;;;;11.62;81.37;99625.31;4982695;28;20044;-90
2022/11/08 12:08:01;;;;;;;7.80;3.50;;;;;;;11.65;81.69;99626.84;4963603;28;20536;-89